Time;durP1;ratioP1;P1;durP2;ratioP2;P2;SDS_P1;SDS_P2;PMS_P1;PMS_P2;Temp;Humidity;BMP_temperature;BMP_pressure;BME280_temperature;BME280_humidity;BME280_pressure;Samples;Min_cycle;Max_cycle;Signal;HPM_P1;HPM_P2
2023/02/11 00:02:04;;;;;;;40.50;21.90;;;;;;;0.40;48.88;102311.20;107154;1290;1002433;-59
2023/02/11 00:04:30;;;;;;;45.50;23.80;;;;;;;0.27;49.05;102314.53;107993;1290;22028;-61
2023/02/11 00:06:56;;;;;;;47.70;23.10;;;;;;;0.16;49.29;102311.81;107792;1291;22002;-58
2023/02/11 00:09:22;;;;;;;45.30;23.70;;;;;;;0.10;49.39;102306.13;107914;1290;22009;-59
2023/02/11 00:11:47;;;;;;;46.90;25.10;;;;;;;0.09;49.54;102304.81;107852;1290;22004;-59
2023/02/11 00:14:13;;;;;;;51.10;24.90;;;;;;;0.11;49.37;102307.91;107043;1290;1002081;-62
2023/02/11 00:16:39;;;;;;;46.00;24.10;;;;;;;0.11;49.38;102304.13;107788;1290;23076;-61
2023/02/11 00:19:05;;;;;;;41.10;22.30;;;;;;;0.15;49.49;102301.59;107972;1290;22205;-60
2023/02/11 00:21:32;;;;;;;46.60;24.20;;;;;;;0.14;49.53;102304.82;107954;1282;22054;-61
2023/02/11 00:24:00;;;;;;;49.40;26.30;;;;;;;0.21;49.65;102303.30;107731;1291;22001;-60
2023/02/11 00:26:30;;;;;;;48.20;23.80;;;;;;;0.25;49.48;102304.27;107722;1291;21993;-59
2023/02/11 00:28:56;;;;;;;42.40;21.40;;;;;;;0.31;49.21;102303.89;107888;1290;22004;-59
2023/02/11 00:31:22;;;;;;;37.50;19.80;;;;;;;0.35;49.14;102299.85;107807;1290;22013;-58
2023/02/11 00:33:48;;;;;;;41.90;21.20;;;;;;;0.30;49.06;102303.70;107850;1291;22745;-58
2023/02/11 00:36:16;;;;;;;40.10;20.00;;;;;;;0.27;49.09;102305.77;107739;1291;22001;-61
2023/02/11 00:38:43;;;;;;;38.30;20.70;;;;;;;0.24;49.21;102304.38;107843;1290;21996;-61
2023/02/11 00:41:09;;;;;;;36.80;20.30;;;;;;;0.21;49.15;102299.88;107853;1290;22066;-60
2023/02/11 00:43:35;;;;;;;41.20;20.90;;;;;;;0.22;48.72;102291.82;107924;1285;23045;-61
2023/02/11 00:46:01;;;;;;;39.00;21.60;;;;;;;0.24;48.58;102290.89;107789;1290;22467;-59
2023/02/11 00:48:27;;;;;;;33.90;19.30;;;;;;;0.22;48.68;102289.39;107941;1290;22005;-59
2023/02/11 00:50:53;;;;;;;37.50;21.00;;;;;;;0.12;48.63;102292.95;107996;1291;22031;-58
2023/02/11 00:53:19;;;;;;;42.70;20.60;;;;;;;0.03;48.71;102290.47;107760;1291;21994;-59
2023/02/11 00:55:45;;;;;;;42.80;21.60;;;;;;;0.01;48.70;102284.98;107900;1290;22110;-61
2023/02/11 00:58:10;;;;;;;41.90;20.80;;;;;;;0.03;48.77;102282.49;107780;1290;21999;-57
2023/02/11 01:00:36;;;;;;;40.50;20.50;;;;;;;0.04;48.59;102280.37;106985;1290;1002500;-62
2023/02/11 01:03:02;;;;;;;40.90;19.90;;;;;;;0.05;48.60;102280.21;108032;1290;21992;-60
2023/02/11 01:05:28;;;;;;;42.50;23.20;;;;;;;0.05;48.48;102282.47;107910;1290;21979;-60
2023/02/11 01:07:53;;;;;;;41.30;20.30;;;;;;;0.04;48.79;102278.27;107918;1291;22027;-59
2023/02/11 01:10:19;;;;;;;38.50;20.20;;;;;;;0.03;48.62;102274.58;107780;1291;23686;-60
2023/02/11 01:12:44;;;;;;;43.30;20.50;;;;;;;0.03;48.87;102274.26;107981;1291;21999;-62
2023/02/11 01:15:12;;;;;;;38.10;18.40;;;;;;;0.04;48.76;102266.03;107934;1291;22000;-59
2023/02/11 01:17:38;;;;;;;40.40;18.80;;;;;;;0.07;48.67;102263.08;108087;1291;21993;-60
2023/02/11 01:20:06;;;;;;;35.30;19.00;;;;;;;0.10;48.58;102264.52;108021;1290;21997;-62
2023/02/11 01:22:33;;;;;;;40.20;20.00;;;;;;;0.15;48.68;102264.96;107284;1290;1002586;-61
2023/02/11 01:24:59;;;;;;;35.50;18.50;;;;;;;0.18;48.76;102265.30;107906;1290;22005;-58
2023/02/11 01:27:25;;;;;;;35.10;18.20;;;;;;;0.21;48.67;102262.05;107250;1290;1002317;-61
2023/02/11 01:29:52;;;;;;;35.70;18.70;;;;;;;0.22;48.27;102265.02;107927;1291;22014;-59
2023/02/11 01:32:17;;;;;;;44.60;19.20;;;;;;;0.22;48.26;102264.16;107999;1291;21990;-61
2023/02/11 01:34:45;;;;;;;45.60;20.90;;;;;;;0.22;48.27;102264.33;107914;1290;22002;-60
2023/02/11 01:37:12;;;;;;;38.70;19.90;;;;;;;0.20;48.21;102262.02;107745;1290;22003;-60
2023/02/11 01:39:38;;;;;;;35.30;18.70;;;;;;;0.23;48.23;102262.48;107144;1290;1003099;-60
2023/02/11 01:42:04;;;;;;;36.10;18.50;;;;;;;0.23;48.29;102263.23;108019;1290;22090;-61
2023/02/11 01:44:32;;;;;;;39.10;19.10;;;;;;;0.22;48.08;102258.99;107962;1290;22087;-59
2023/02/11 01:46:58;;;;;;;34.70;17.30;;;;;;;0.25;47.96;102257.08;107895;1291;22048;-57
2023/02/11 01:49:32;;;;;;;31.90;17.60;;;;;;;0.27;48.25;102258.06;107932;1291;21998;-59
2023/02/11 01:52:07;;;;;;;36.00;17.80;;;;;;;0.27;48.06;102260.15;107793;1291;22020;-61
2023/02/11 01:57:21;;;;;;;40.80;20.40;;;;;;;0.28;47.90;102258.52;107998;1290;21993;-59
2023/02/11 01:59:53;;;;;;;34.40;18.20;;;;;;;0.29;47.91;102260.98;107829;1290;22089;-59
2023/02/11 02:02:20;;;;;;;38.40;20.10;;;;;;;0.30;47.64;102258.25;107748;1290;23722;-61
2023/02/11 02:04:54;;;;;;;39.40;20.30;;;;;;;0.29;47.46;102261.13;107874;1291;22050;-61
2023/02/11 02:08:07;;;;;;;40.40;19.70;;;;;;;0.27;47.80;102261.55;107333;1291;1002497;-59
2023/02/11 02:10:33;;;;;;;37.60;19.50;;;;;;;0.26;47.45;102255.60;106710;1297;1002609;-61
2023/02/11 02:12:59;;;;;;;32.20;17.80;;;;;;;0.25;47.53;102251.24;107090;1291;1002493;-59
2023/02/11 02:15:30;;;;;;;39.70;21.40;;;;;;;0.24;47.48;102253.39;107794;1291;22058;-61
2023/02/11 02:18:25;;;;;;;40.10;19.30;;;;;;;0.22;47.40;102253.15;107848;1291;22711;-62
2023/02/11 02:21:10;;;;;;;39.40;20.00;;;;;;;0.23;47.52;102256.81;107936;1291;22000;-59
2023/02/11 02:23:54;;;;;;;35.20;18.60;;;;;;;0.24;47.41;102256.73;108038;1290;21991;-61
2023/02/11 02:26:54;;;;;;;33.00;17.10;;;;;;;0.26;47.42;102254.77;107021;1290;1002422;-61
2023/02/11 02:29:26;;;;;;;36.50;18.50;;;;;;;0.28;47.48;102256.91;107690;1290;22013;-62
2023/02/11 02:32:16;;;;;;;36.70;18.60;;;;;;;0.27;47.24;102253.79;107917;1290;21992;-58
2023/02/11 02:34:45;;;;;;;33.60;16.50;;;;;;;0.28;47.16;102250.73;107971;1291;22007;-61
2023/02/11 02:37:37;;;;;;;31.80;16.60;;;;;;;0.31;47.11;102245.85;107932;1291;21999;-61
2023/02/11 02:40:06;;;;;;;35.80;17.40;;;;;;;0.33;47.24;102245.69;107995;1291;22034;-60
2023/02/11 02:42:32;;;;;;;35.10;18.30;;;;;;;0.35;47.39;102243.90;107936;1291;22035;-58
2023/02/11 02:44:58;;;;;;;33.60;17.90;;;;;;;0.37;47.15;102243.48;107843;1291;22000;-62
2023/02/11 02:47:26;;;;;;;33.10;17.20;;;;;;;0.40;47.18;102240.19;107954;1291;22002;-59
2023/02/11 02:49:52;;;;;;;32.40;15.00;;;;;;;0.41;47.02;102234.24;108020;1291;21999;-62
2023/02/11 02:52:41;;;;;;;33.50;16.60;;;;;;;0.42;47.00;102232.22;107857;1291;22003;-59
2023/02/11 02:55:19;;;;;;;40.10;17.30;;;;;;;0.42;47.02;102231.88;108049;1291;21998;-59
2023/02/11 02:58:03;;;;;;;33.30;16.60;;;;;;;0.43;46.82;102232.60;107999;1291;21989;-60
2023/02/11 03:00:42;;;;;;;32.50;16.10;;;;;;;0.43;46.62;102233.80;107277;1291;1003412;-61
2023/02/11 03:03:11;;;;;;;35.50;18.00;;;;;;;0.42;46.71;102235.14;108034;1291;22431;-61
2023/02/11 03:05:48;;;;;;;33.00;16.10;;;;;;;0.41;46.62;102234.05;108012;1291;22052;-61
2023/02/11 03:08:46;;;;;;;34.30;17.30;;;;;;;0.40;46.73;102231.74;108088;1291;22202;-61
2023/02/11 03:11:14;;;;;;;35.60;17.80;;;;;;;0.36;46.74;102235.15;108021;1291;21999;-61
2023/02/11 03:13:40;;;;;;;31.60;16.90;;;;;;;0.39;46.70;102231.52;107947;1291;21999;-62
2023/02/11 03:16:15;;;;;;;34.20;16.90;;;;;;;0.40;46.60;102228.98;107047;1290;1003046;-61
2023/02/11 03:18:43;;;;;;;37.90;16.30;;;;;;;0.42;46.65;102223.74;108032;1290;24454;-61
2023/02/11 03:21:09;;;;;;;29.70;15.80;;;;;;;0.29;46.93;102225.59;107320;1289;1002962;-61
2023/02/11 03:23:39;;;;;;;29.40;14.90;;;;;;;0.26;47.13;102226.08;107323;1290;1002949;-63
2023/02/11 03:26:11;;;;;;;30.70;16.70;;;;;;;0.25;47.05;102225.34;108005;1290;22009;-61
2023/02/11 03:28:46;;;;;;;28.10;14.50;;;;;;;0.25;46.93;102224.11;107878;1289;21990;-59
2023/02/11 03:31:34;;;;;;;35.50;15.90;;;;;;;0.24;47.24;102223.20;107687;1290;22007;-57
2023/02/11 03:34:09;;;;;;;33.10;16.50;;;;;;;0.24;47.12;102223.72;107671;1283;21994;-57
2023/02/11 03:36:44;;;;;;;35.30;16.90;;;;;;;0.31;46.80;102221.73;107784;1290;22864;-58
2023/02/11 03:39:15;;;;;;;33.80;17.50;;;;;;;0.36;46.58;102213.89;107653;1290;22100;-57
2023/02/11 03:41:41;;;;;;;33.70;16.40;;;;;;;0.35;46.59;102213.11;107873;1290;22022;-58
2023/02/11 03:44:07;;;;;;;33.00;17.50;;;;;;;0.31;46.67;102211.88;107948;1290;22003;-61
2023/02/11 03:46:37;;;;;;;36.10;19.30;;;;;;;0.21;46.73;102216.63;107066;1290;1002664;-60
2023/02/11 03:49:07;;;;;;;35.90;18.20;;;;;;;0.16;46.66;102214.09;107902;1290;22001;-58
2023/02/11 03:51:32;;;;;;;28.30;13.80;;;;;;;0.11;46.71;102207.92;108010;1290;22461;-57
2023/02/11 03:53:59;;;;;;;33.90;18.20;;;;;;;0.05;46.97;102206.17;107944;1290;21990;-58
2023/02/11 03:56:26;;;;;;;37.80;18.20;;;;;;;0.02;47.14;102203.39;107958;1290;22034;-57
2023/02/11 03:58:52;;;;;;;32.50;18.50;;;;;;;-0.01;47.13;102206.04;107924;1290;21996;-60
2023/02/11 04:01:18;;;;;;;33.60;16.90;;;;;;;-0.03;46.88;102206.27;107192;1284;1003073;-57
2023/02/11 04:03:43;;;;;;;33.70;15.70;;;;;;;-0.05;46.88;102205.43;106975;1290;1003027;-57
2023/02/11 04:06:09;;;;;;;30.10;15.90;;;;;;;-0.04;47.17;102207.40;107642;1290;21990;-59
2023/02/11 04:08:35;;;;;;;36.90;17.00;;;;;;;-0.02;47.13;102205.60;107658;1290;22002;-57
2023/02/11 04:11:03;;;;;;;29.10;15.90;;;;;;;0.01;47.20;102204.77;107654;1290;21969;-59
2023/02/11 04:13:29;;;;;;;28.30;15.70;;;;;;;0.08;47.24;102205.15;107702;1290;21993;-59
2023/02/11 04:15:55;;;;;;;29.80;15.50;;;;;;;0.16;47.19;102203.90;107663;1290;22043;-57
2023/02/11 04:18:21;;;;;;;33.10;17.10;;;;;;;0.24;47.16;102205.05;107641;1290;22000;-58
2023/02/11 04:20:47;;;;;;;31.30;15.90;;;;;;;0.31;47.24;102198.23;107788;1290;21991;-59
2023/02/11 04:23:13;;;;;;;30.10;15.20;;;;;;;0.38;47.24;102197.76;107928;1290;22001;-61
2023/02/11 04:25:38;;;;;;;31.90;15.40;;;;;;;0.46;47.40;102198.23;107908;1290;22032;-62
2023/02/11 04:28:04;;;;;;;27.70;14.50;;;;;;;0.50;47.58;102199.48;108001;1289;22000;-61
2023/02/11 04:30:30;;;;;;;27.00;13.50;;;;;;;0.52;47.58;102198.91;107921;1290;24928;-59
2023/02/11 04:32:57;;;;;;;28.50;14.40;;;;;;;0.52;47.46;102198.91;107766;1290;22000;-60
2023/02/11 04:35:23;;;;;;;30.90;15.30;;;;;;;0.55;47.63;102194.08;107759;1290;22003;-59
2023/02/11 04:37:49;;;;;;;25.90;13.30;;;;;;;0.49;48.03;102189.20;107667;1290;22002;-61
2023/02/11 04:40:14;;;;;;;27.60;13.80;;;;;;;0.57;47.96;102192.30;107653;1290;21998;-60
2023/02/11 04:42:43;;;;;;;26.70;13.20;;;;;;;0.61;48.27;102197.23;107760;1290;22004;-62
2023/02/11 04:45:09;;;;;;;27.30;14.10;;;;;;;0.67;48.28;102198.41;107947;1289;21988;-62
2023/02/11 04:47:36;;;;;;;27.80;12.70;;;;;;;0.78;48.47;102198.66;107764;1291;22057;-59
2023/02/11 04:50:02;;;;;;;27.70;14.10;;;;;;;0.86;48.29;102197.42;107629;1291;21996;-59
2023/02/11 04:52:28;;;;;;;25.40;12.40;;;;;;;0.98;48.29;102196.18;107674;1291;22018;-59
2023/02/11 04:54:54;;;;;;;26.80;12.40;;;;;;;1.12;48.13;102193.46;106987;1291;1002545;-57
2023/02/11 04:57:19;;;;;;;27.00;14.00;;;;;;;1.26;48.14;102192.70;106957;1291;1002599;-57
2023/02/11 04:59:45;;;;;;;24.40;12.40;;;;;;;1.37;48.00;102194.70;106954;1291;1002225;-59
2023/02/11 05:02:11;;;;;;;25.30;13.10;;;;;;;1.46;48.00;102192.75;107623;1291;21991;-58
2023/02/11 05:04:36;;;;;;;26.70;13.40;;;;;;;1.52;48.11;102190.13;107683;1291;22034;-59
2023/02/11 05:07:02;;;;;;;28.40;13.70;;;;;;;1.59;48.11;102190.66;107651;1291;21989;-57
2023/02/11 05:09:28;;;;;;;22.50;12.00;;;;;;;1.67;48.32;102189.36;107678;1290;22070;-58
2023/02/11 05:11:54;;;;;;;27.20;13.40;;;;;;;1.75;48.24;102189.77;107619;1290;22176;-57
2023/02/11 05:14:19;;;;;;;27.60;14.60;;;;;;;1.82;48.19;102194.65;107739;1284;22002;-60
2023/02/11 05:16:45;;;;;;;27.30;15.40;;;;;;;1.90;48.40;102192.97;107908;1280;22005;-58
2023/02/11 05:19:10;;;;;;;32.20;14.40;;;;;;;1.96;48.26;102190.01;108025;1290;22002;-59
2023/02/11 05:21:36;;;;;;;27.70;14.10;;;;;;;2.01;48.42;102186.62;107222;1290;1002496;-59
2023/02/11 05:24:02;;;;;;;27.50;13.70;;;;;;;2.08;48.57;102184.73;107781;1290;21990;-61
2023/02/11 05:26:31;;;;;;;29.10;14.10;;;;;;;2.14;48.35;102184.30;107064;1290;1002546;-58
2023/02/11 05:28:58;;;;;;;24.80;13.80;;;;;;;2.19;48.34;102187.52;107792;1290;22000;-61
2023/02/11 05:31:23;;;;;;;27.40;14.20;;;;;;;2.22;48.27;102187.18;107749;1290;21999;-59
2023/02/11 05:33:49;;;;;;;28.20;15.20;;;;;;;2.25;48.29;102183.17;107079;1290;1002776;-62
2023/02/11 05:36:15;;;;;;;26.00;15.40;;;;;;;2.27;48.12;102185.70;106956;1290;1002414;-61
2023/02/11 05:38:42;;;;;;;24.50;14.60;;;;;;;2.29;48.20;102181.10;107898;1291;21996;-59
2023/02/11 05:41:09;;;;;;;26.10;14.70;;;;;;;2.34;48.09;102182.70;107760;1291;22000;-59
2023/02/11 05:43:36;;;;;;;27.80;15.20;;;;;;;2.38;48.14;102180.17;107308;1291;1002624;-58
2023/02/11 05:46:02;;;;;;;27.20;15.10;;;;;;;2.50;47.96;102180.92;107735;1287;23913;-60
2023/02/11 05:48:29;;;;;;;24.30;13.80;;;;;;;2.65;47.68;102178.02;107684;1290;22017;-58
2023/02/11 05:50:54;;;;;;;25.60;14.90;;;;;;;2.71;47.69;102177.95;106938;1291;1002676;-60
2023/02/11 05:53:20;;;;;;;24.90;14.20;;;;;;;2.76;47.62;102180.11;107844;1291;23047;-60
2023/02/11 05:55:46;;;;;;;28.40;14.90;;;;;;;2.78;47.52;102181.42;107732;1285;22046;-58
2023/02/11 05:58:12;;;;;;;25.20;13.30;;;;;;;2.66;47.73;102182.07;107770;1290;21995;-61
2023/02/11 06:00:38;;;;;;;24.70;12.40;;;;;;;2.63;47.94;102180.36;107802;1290;22106;-60
2023/02/11 06:03:04;;;;;;;22.20;12.40;;;;;;;2.65;47.98;102177.53;107799;1283;21993;-63
2023/02/11 06:05:30;;;;;;;26.00;14.60;;;;;;;2.68;48.02;102177.14;107759;1291;21984;-59
2023/02/11 06:08:03;;;;;;;27.50;15.40;;;;;;;2.72;48.12;102178.88;107034;1290;1002476;-58
2023/02/11 06:10:29;;;;;;;26.60;14.70;;;;;;;2.76;48.11;102179.92;107186;1290;1002244;-60
2023/02/11 06:12:54;;;;;;;28.50;15.50;;;;;;;2.78;47.90;102181.45;107990;1290;21981;-58
2023/02/11 06:15:21;;;;;;;23.80;14.20;;;;;;;2.82;48.10;102182.84;107897;1290;21993;-62
2023/02/11 06:17:46;;;;;;;28.90;17.20;;;;;;;2.86;48.14;102176.29;107915;1290;21995;-59
2023/02/11 06:20:14;;;;;;;33.70;17.90;;;;;;;2.89;48.23;102173.45;107936;1290;22001;-62
2023/02/11 06:22:40;;;;;;;30.10;15.70;;;;;;;2.91;48.16;102171.29;107958;1290;22027;-60
2023/02/11 06:25:06;;;;;;;28.60;16.00;;;;;;;2.93;48.09;102169.67;107208;1290;1003171;-59
2023/02/11 06:27:32;;;;;;;26.80;14.10;;;;;;;2.96;48.08;102167.91;107826;1290;22019;-62
2023/02/11 06:29:58;;;;;;;28.10;14.60;;;;;;;3.03;48.25;102164.77;107680;1291;21999;-59
2023/02/11 06:32:25;;;;;;;25.50;13.70;;;;;;;3.10;48.34;102165.94;107655;1291;21999;-61
2023/02/11 06:34:51;;;;;;;24.70;13.30;;;;;;;3.16;48.30;102164.66;107749;1291;22000;-60
2023/02/11 06:37:17;;;;;;;25.30;14.20;;;;;;;3.20;48.25;102166.94;108018;1290;21975;-61
2023/02/11 06:39:44;;;;;;;24.80;14.30;;;;;;;3.24;48.22;102164.69;107790;1291;21999;-61
2023/02/11 06:42:10;;;;;;;26.60;15.00;;;;;;;3.24;48.21;102160.36;107768;1291;21989;-59
2023/02/11 06:44:35;;;;;;;24.80;15.50;;;;;;;3.25;48.28;102157.29;107661;1291;22034;-62
2023/02/11 06:47:04;;;;;;;28.30;15.00;;;;;;;3.28;48.17;102154.83;107849;1291;21996;-59
2023/02/11 06:49:30;;;;;;;26.70;14.50;;;;;;;3.31;48.13;102159.13;107020;1291;1003566;-59
2023/02/11 06:51:56;;;;;;;27.80;16.20;;;;;;;3.36;48.02;102157.58;107016;1291;1003296;-61
2023/02/11 06:54:22;;;;;;;31.00;17.40;;;;;;;3.39;48.15;102159.98;107818;1291;22000;-61
2023/02/11 06:56:47;;;;;;;25.50;15.90;;;;;;;3.42;48.15;102157.16;107019;1291;1002292;-62
2023/02/11 06:59:18;;;;;;;33.90;14.80;;;;;;;3.43;48.17;102158.79;106897;1291;1002417;-63
2023/02/11 07:01:45;;;;;;;26.70;14.30;;;;;;;3.47;48.20;102156.16;107811;1291;24314;-63
2023/02/11 07:04:13;;;;;;;29.40;16.70;;;;;;;3.51;48.30;102157.77;107695;1290;23770;-62
2023/02/11 07:06:39;;;;;;;34.80;18.20;;;;;;;3.56;48.27;102160.40;107832;1290;21987;-61
2023/02/11 07:09:04;;;;;;;26.60;17.00;;;;;;;3.60;48.36;102160.23;107811;1286;21996;-63
2023/02/11 07:11:36;;;;;;;33.20;18.90;;;;;;;3.61;48.35;102160.47;107899;1290;22002;-59
2023/02/11 07:14:04;;;;;;;33.90;19.20;;;;;;;3.61;48.25;102158.55;107957;1290;21993;-63
2023/02/11 07:16:30;;;;;;;36.20;20.90;;;;;;;3.64;48.37;102160.06;107980;1290;21993;-59
2023/02/11 07:19:02;;;;;;;130.40;43.50;;;;;;;3.65;48.41;102156.66;107063;1290;1002914;-60
2023/02/11 07:21:27;;;;;;;74.90;31.70;;;;;;;3.67;48.43;102153.77;107041;1290;1003130;-58
2023/02/11 07:23:53;;;;;;;78.60;37.50;;;;;;;3.68;48.27;102149.86;107088;1290;1003230;-62
2023/02/11 07:26:22;;;;;;;137.80;67.10;;;;;;;3.72;48.26;102139.08;107905;1290;23592;-62
2023/02/11 07:28:48;;;;;;;58.90;32.10;;;;;;;3.76;48.24;102136.45;107867;1290;21998;-62
2023/02/11 07:31:16;;;;;;;39.90;21.70;;;;;;;3.96;48.00;102139.58;107944;1290;23506;-61
2023/02/11 07:33:42;;;;;;;33.30;18.70;;;;;;;4.12;47.78;102136.61;107787;1290;23494;-60
2023/02/11 07:36:09;;;;;;;37.30;19.60;;;;;;;4.19;47.65;102133.79;107839;1290;21992;-59
2023/02/11 07:38:35;;;;;;;32.90;18.30;;;;;;;4.26;47.43;102135.31;107133;1290;1002482;-62
2023/02/11 07:41:03;;;;;;;35.00;18.80;;;;;;;4.31;47.20;102134.13;107892;1290;21993;-60
2023/02/11 07:43:30;;;;;;;34.30;20.40;;;;;;;4.34;46.96;102130.77;107810;1290;22000;-59
2023/02/11 07:45:55;;;;;;;36.90;22.00;;;;;;;4.37;47.09;102131.05;107727;1291;22067;-60
2023/02/11 07:48:21;;;;;;;33.50;20.10;;;;;;;4.40;47.17;102131.52;107913;1291;22001;-59
2023/02/11 07:50:47;;;;;;;35.60;20.20;;;;;;;4.44;47.24;102127.17;107656;1291;22007;-62
2023/02/11 07:53:12;;;;;;;34.40;20.40;;;;;;;4.51;47.26;102123.42;107831;1290;22123;-59
2023/02/11 07:55:38;;;;;;;37.20;22.30;;;;;;;4.57;47.18;102125.59;107189;1290;1002436;-59
2023/02/11 07:58:04;;;;;;;37.60;21.00;;;;;;;4.62;47.21;102121.62;106896;1291;1002280;-60
2023/02/11 08:00:30;;;;;;;35.20;20.20;;;;;;;4.64;46.83;102117.34;106910;1291;1002814;-60
2023/02/11 08:02:56;;;;;;;40.10;21.80;;;;;;;4.63;46.97;102116.64;106992;1290;1002396;-59
2023/02/11 08:05:22;;;;;;;36.60;20.40;;;;;;;4.65;46.84;102117.03;107167;1290;1003107;-63
2023/02/11 08:07:52;;;;;;;32.40;19.40;;;;;;;4.69;46.76;102116.49;107986;1290;21993;-59
2023/02/11 08:10:19;;;;;;;35.40;19.90;;;;;;;4.75;46.95;102117.97;107138;1290;1002250;-63
2023/02/11 08:12:45;;;;;;;33.70;19.80;;;;;;;4.82;47.07;102117.02;107194;1290;1002615;-62
2023/02/11 08:15:11;;;;;;;41.00;20.30;;;;;;;4.88;47.23;102113.09;107108;1290;1002403;-63
2023/02/11 08:17:37;;;;;;;33.10;18.20;;;;;;;4.96;47.15;102112.01;107861;1290;21995;-62
2023/02/11 08:20:03;;;;;;;30.70;18.30;;;;;;;5.05;47.11;102105.72;107980;1290;22064;-60
2023/02/11 08:22:33;;;;;;;31.10;19.00;;;;;;;5.20;46.92;102102.45;107796;1291;21999;-58
2023/02/11 08:25:00;;;;;;;36.20;19.80;;;;;;;5.31;46.90;102097.79;107731;1291;21999;-58
2023/02/11 08:27:26;;;;;;;37.40;20.70;;;;;;;5.39;46.69;102085.21;107703;1291;22068;-58
2023/02/11 08:29:53;;;;;;;30.00;18.80;;;;;;;5.47;47.05;102087.08;107661;1291;21999;-64
2023/02/11 08:32:20;;;;;;;31.20;17.90;;;;;;;5.63;47.17;102087.30;107857;1291;21997;-60
2023/02/11 08:34:50;;;;;;;32.80;18.20;;;;;;;5.80;46.73;102089.98;107637;1291;22506;-62
2023/02/11 08:37:17;;;;;;;36.20;20.00;;;;;;;5.95;46.93;102085.96;106905;1291;1003148;-61
2023/02/11 08:39:43;;;;;;;31.70;18.70;;;;;;;6.07;47.08;102085.35;107658;1287;22503;-61
2023/02/11 08:42:09;;;;;;;38.60;20.10;;;;;;;6.27;47.36;102087.04;107912;1290;21997;-58
2023/02/11 08:44:36;;;;;;;48.50;24.90;;;;;;;6.40;46.82;102088.17;107805;1290;22011;-61
2023/02/11 08:47:02;;;;;;;48.10;27.30;;;;;;;6.55;46.62;102088.14;107790;1290;22061;-58
2023/02/11 08:49:29;;;;;;;39.40;22.50;;;;;;;6.64;46.40;102084.02;107820;1290;22011;-58
2023/02/11 08:51:58;;;;;;;35.60;21.60;;;;;;;6.76;46.46;102083.18;107829;1289;21996;-59
2023/02/11 08:54:24;;;;;;;34.60;20.80;;;;;;;6.93;46.56;102083.19;107159;1290;1002574;-58
2023/02/11 08:56:50;;;;;;;39.90;21.40;;;;;;;7.08;46.62;102080.48;107762;1290;22468;-58
2023/02/11 08:59:16;;;;;;;29.50;18.30;;;;;;;7.20;46.51;102080.13;107813;1290;22006;-58
2023/02/11 09:01:42;;;;;;;32.90;20.10;;;;;;;7.26;46.24;102077.67;107648;1291;21993;-58
2023/02/11 09:04:09;;;;;;;33.40;19.30;;;;;;;7.36;46.34;102078.66;106961;1291;1003197;-59
2023/02/11 09:06:34;;;;;;;34.20;19.30;;;;;;;7.50;46.65;102077.46;107677;1291;21998;-58
2023/02/11 09:09:00;;;;;;;27.80;17.60;;;;;;;7.63;46.30;102074.65;107801;1291;21984;-62
2023/02/11 09:11:28;;;;;;;28.50;18.00;;;;;;;7.68;45.95;102066.45;107893;1291;21980;-62
2023/02/11 09:13:56;;;;;;;28.20;18.10;;;;;;;7.74;46.02;102061.50;107782;1291;23753;-59
2023/02/11 09:16:24;;;;;;;31.30;19.10;;;;;;;7.84;45.87;102058.45;107800;1291;22002;-62
2023/02/11 09:18:51;;;;;;;37.90;20.20;;;;;;;7.92;45.45;102056.02;107961;1291;22000;-57
2023/02/11 09:21:17;;;;;;;39.40;24.10;;;;;;;7.93;45.28;102048.90;107792;1291;22457;-61
2023/02/11 09:23:43;;;;;;;40.40;24.00;;;;;;;7.95;45.12;102042.81;107769;1291;21999;-62
2023/02/11 09:26:14;;;;;;;58.70;31.00;;;;;;;8.00;45.27;102036.83;107645;1291;22005;-59
2023/02/11 09:28:40;;;;;;;39.10;23.80;;;;;;;8.10;45.32;102036.02;107801;1291;22001;-62
2023/02/11 09:31:07;;;;;;;34.00;22.50;;;;;;;8.19;45.02;102029.41;106945;1291;1002906;-62
2023/02/11 09:33:33;;;;;;;36.80;21.90;;;;;;;8.17;44.83;102024.99;107646;1291;22925;-62
2023/02/11 09:36:04;;;;;;;34.70;21.90;;;;;;;8.17;44.99;102019.23;107806;1291;22005;-62
2023/02/11 09:38:30;;;;;;;;;;;;;;;8.25;45.29;102011.01;107702;1291;21978;-58
2023/02/11 09:41:01;;;;;;;31.90;19.10;;;;;;;8.34;44.87;101999.34;107662;1291;23709;-58
2023/02/11 09:43:44;;;;;;;30.70;18.70;;;;;;;8.49;45.17;101997.08;107079;1291;1002606;-62
2023/02/11 09:46:14;;;;;;;30.20;18.40;;;;;;;8.68;45.02;101988.22;107028;1291;1002500;-58
2023/02/11 09:48:40;;;;;;;36.10;20.40;;;;;;;8.90;44.93;101980.45;107935;1291;21996;-62
2023/02/11 09:51:09;;;;;;;28.10;18.20;;;;;;;9.03;44.40;101977.20;107657;1291;21994;-58
2023/02/11 09:53:37;;;;;;;29.40;18.50;;;;;;;9.14;44.73;101971.98;107890;1290;21997;-60
2023/02/11 09:56:12;;;;;;;23.50;14.80;;;;;;;9.35;45.42;101965.89;107844;1290;23101;-58
2023/02/11 09:58:39;;;;;;;28.90;17.10;;;;;;;9.66;45.81;101956.09;107895;1290;21993;-62
2023/02/11 10:01:27;;;;;;;26.50;15.80;;;;;;;9.94;45.38;101950.58;107900;1290;21988;-63
2023/02/11 10:04:03;;;;;;;25.70;16.40;;;;;;;10.15;45.15;101946.85;107891;1291;22005;-64
2023/02/11 10:07:00;;;;;;;25.40;15.50;;;;;;;10.33;44.17;101947.45;107808;1291;22026;-58
2023/02/11 10:09:33;;;;;;;25.30;17.30;;;;;;;10.43;44.20;101939.20;107810;1291;21990;-58
2023/02/11 10:12:13;;;;;;;25.70;16.00;;;;;;;10.54;44.06;101934.78;107875;1283;21979;-58
2023/02/11 10:14:48;;;;;;;22.90;15.10;;;;;;;10.67;44.13;101930.03;107967;1286;21993;-64
2023/02/11 10:17:55;;;;;;;24.70;14.90;;;;;;;10.81;43.59;101922.29;107973;1290;22030;-64
2023/02/11 10:20:31;;;;;;;20.30;12.40;;;;;;;10.89;43.07;101916.41;107813;1290;22033;-63
2023/02/11 10:23:00;;;;;;;23.90;15.30;;;;;;;10.80;42.17;101918.08;107810;1290;22036;-59
2023/02/11 10:25:45;;;;;;;28.80;16.20;;;;;;;10.81;42.74;101912.63;107892;1290;23699;-63
2023/02/11 10:28:32;;;;;;;26.70;16.30;;;;;;;10.91;42.51;101912.40;107837;1288;22035;-63
2023/02/11 10:31:14;;;;;;;26.50;16.40;;;;;;;10.93;42.04;101912.05;107189;1290;1003227;-63
2023/02/11 10:34:03;;;;;;;25.40;16.20;;;;;;;10.92;41.90;101902.57;107927;1291;23043;-63
2023/02/11 10:36:32;;;;;;;29.60;16.90;;;;;;;10.93;42.06;101896.60;107041;1291;1002307;-58
2023/02/11 10:38:59;;;;;;;24.10;16.00;;;;;;;10.89;41.45;101891.99;107874;1291;21994;-58
2023/02/11 10:41:32;;;;;;;24.10;15.80;;;;;;;10.89;41.53;101895.67;107959;1290;22006;-64
2023/02/11 10:43:59;;;;;;;24.80;15.30;;;;;;;10.90;41.67;101891.30;107816;1290;22739;-63
2023/02/11 10:46:28;;;;;;;23.50;15.90;;;;;;;11.00;42.02;101888.24;107861;1290;23992;-63
2023/02/11 10:48:53;;;;;;;25.30;15.60;;;;;;;11.16;41.73;101885.05;107899;1290;22116;-59
2023/02/11 10:51:23;;;;;;;29.40;19.30;;;;;;;11.19;41.06;101883.87;107578;1291;302408;-58
2023/02/11 10:54:02;;;;;;;24.30;16.10;;;;;;;11.19;40.93;101875.78;107784;1291;23077;-63
2023/02/11 10:56:28;;;;;;;21.50;12.90;;;;;;;11.29;40.95;101868.66;107791;1291;21995;-58
2023/02/11 10:58:57;;;;;;;23.30;14.80;;;;;;;11.22;40.37;101865.27;107872;1291;22022;-61
2023/02/11 11:01:36;;;;;;;22.10;14.40;;;;;;;11.24;40.45;101862.13;107819;1290;22030;-58
2023/02/11 11:04:01;;;;;;;22.80;13.10;;;;;;;11.34;40.65;101856.73;107846;1290;21999;-58
2023/02/11 11:06:31;;;;;;;24.20;14.50;;;;;;;11.40;40.48;101847.50;107824;1290;21992;-64
2023/02/11 11:08:56;;;;;;;21.80;12.80;;;;;;;11.42;40.30;101843.83;107176;1290;1006262;-58
2023/02/11 11:11:24;;;;;;;26.40;14.70;;;;;;;11.55;40.91;101837.57;107842;1291;21996;-64
2023/02/11 11:13:52;;;;;;;19.60;12.40;;;;;;;11.61;40.18;101837.44;107875;1291;22045;-59
2023/02/11 11:16:26;;;;;;;20.00;12.50;;;;;;;11.57;40.08;101834.41;107850;1291;21990;-60